createdAt,value
2019-04-04T00:02:10.980Z,4.43
2019-04-04T00:04:44.644Z,4.33
2019-04-04T00:07:18.383Z,4.43
2019-04-04T00:09:52.386Z,4.47
2019-04-04T00:12:26.127Z,4.10
2019-04-04T00:15:02.454Z,4.80
2019-04-04T00:17:35.240Z,5.40
2019-04-04T00:20:09.600Z,6.27
2019-04-04T00:22:43.303Z,4.70
2019-04-04T00:25:17.652Z,5.70
2019-04-04T00:27:51.824Z,5.20
2019-04-04T00:30:25.946Z,5.70
2019-04-04T00:32:59.678Z,6.10
2019-04-04T00:35:50.460Z,5.90
2019-04-04T00:38:25.027Z,6.10
2019-04-04T00:40:59.055Z,5.50
2019-04-04T00:43:33.507Z,5.67
2019-04-04T00:46:07.832Z,6.20
2019-04-04T00:48:41.977Z,6.80
2019-04-04T00:51:15.621Z,7.03
2019-04-04T00:53:49.971Z,7.30
2019-04-04T00:56:23.712Z,6.30
2019-04-04T00:58:57.363Z,7.30
2019-04-04T01:01:30.999Z,7.40
2019-04-04T01:04:05.032Z,8.03
2019-04-04T01:06:39.279Z,8.10
2019-04-04T01:09:13.700Z,7.80
2019-04-04T01:11:50.937Z,7.40
2019-04-04T01:14:23.627Z,8.23
2019-04-04T01:16:57.250Z,7.80
2019-04-04T01:19:31.015Z,8.50
2019-04-04T01:22:04.726Z,8.00
2019-04-04T01:24:39.116Z,7.93
2019-04-04T01:27:12.839Z,9.17
2019-04-04T01:29:46.538Z,9.50
2019-04-04T01:32:20.727Z,8.63
2019-04-04T01:34:54.460Z,10.13
2019-04-04T01:37:28.073Z,9.67
2019-04-04T01:40:02.240Z,9.27
2019-04-04T01:42:38.710Z,9.27
2019-04-04T01:45:13.218Z,10.77
2019-04-04T01:47:48.084Z,10.63
2019-04-04T01:50:22.776Z,9.27
2019-04-04T01:52:58.889Z,8.80
2019-04-04T01:55:34.966Z,9.23
2019-04-04T01:58:10.104Z,9.47
2019-04-04T02:00:46.029Z,8.90
2019-04-04T02:03:22.464Z,8.93
2019-04-04T02:05:56.156Z,9.30
2019-04-04T02:08:31.699Z,9.27
2019-04-04T02:11:06.208Z,10.00
2019-04-04T02:13:40.983Z,9.63
2019-04-04T02:16:16.900Z,9.40
2019-04-04T02:18:53.835Z,9.87
2019-04-04T02:21:28.769Z,8.50
2019-04-04T02:24:02.660Z,9.20
2019-04-04T02:26:36.737Z,9.67
2019-04-04T02:29:11.083Z,12.00
2019-04-04T02:31:53.083Z,14.97
2019-04-04T02:34:24.334Z,14.97
2019-04-04T02:36:58.125Z,15.40
2019-04-04T02:39:32.761Z,12.47
2019-04-04T02:42:07.416Z,15.80
2019-04-04T02:44:41.137Z,16.10
2019-04-04T02:47:17.569Z,16.27
2019-04-04T02:49:50.254Z,15.87
2019-04-04T02:52:23.853Z,17.80
2019-04-04T02:54:58.557Z,17.67
2019-04-04T02:57:32.410Z,16.60
2019-04-04T03:00:07.426Z,18.10
2019-04-04T03:02:41.023Z,17.20
2019-04-04T03:05:18.776Z,17.23
2019-04-04T03:07:50.666Z,15.60
2019-04-04T03:10:24.566Z,15.80
2019-04-04T03:12:59.487Z,16.17
2019-04-04T03:15:33.706Z,16.87
2019-04-04T03:18:07.680Z,16.10
2019-04-04T03:20:41.699Z,16.50
2019-04-04T03:23:15.840Z,17.30
2019-04-04T03:25:50.433Z,17.03
2019-04-04T03:28:24.464Z,16.90
2019-04-04T03:31:02.997Z,17.97
2019-04-04T03:33:33.482Z,18.80
2019-04-04T03:36:07.155Z,17.47
2019-04-04T03:38:40.808Z,19.30
2019-04-04T03:41:14.554Z,18.40
2019-04-04T03:43:49.093Z,18.57
2019-04-04T03:46:23.509Z,17.63
2019-04-04T03:48:57.696Z,19.13
2019-04-04T03:51:31.371Z,19.50
2019-04-04T03:54:08.497Z,19.90
2019-04-04T03:56:42.327Z,19.67
2019-04-04T03:59:16.051Z,19.93
2019-04-04T04:01:49.917Z,19.33
2019-04-04T04:04:26.833Z,21.50
2019-04-04T04:06:59.010Z,20.43
2019-04-04T04:09:32.621Z,20.30
2019-04-04T04:12:10.068Z,19.13
2019-04-04T04:14:41.907Z,20.27
2019-04-04T04:17:15.605Z,20.60
2019-04-04T04:19:49.186Z,18.10
2019-04-04T04:22:24.346Z,20.10
2019-04-04T04:25:02.198Z,20.00
2019-04-04T04:27:47.305Z,21.53
2019-04-04T04:30:18.259Z,21.60
2019-04-04T04:33:11.166Z,21.40
2019-04-04T04:35:46.008Z,21.90
2019-04-04T04:38:25.230Z,21.90
2019-04-04T04:40:56.194Z,21.97
2019-04-04T04:43:33.568Z,22.23
2019-04-04T04:46:05.339Z,21.33
2019-04-04T04:48:39.388Z,22.43
2019-04-04T04:51:13.454Z,21.87
2019-04-04T04:53:48.188Z,21.27
2019-04-04T04:56:22.952Z,22.03
2019-04-04T04:58:56.503Z,24.33
2019-04-04T05:01:30.124Z,23.87
2019-04-04T05:04:03.696Z,24.40
2019-04-04T05:06:37.638Z,25.00
2019-04-04T05:09:13.664Z,23.23
2019-04-04T05:11:49.863Z,23.30
2019-04-04T05:14:21.959Z,24.13
2019-04-04T05:16:55.587Z,25.30
2019-04-04T05:19:29.564Z,23.80
2019-04-04T05:22:03.240Z,22.83
2019-04-04T05:24:36.848Z,24.00
2019-04-04T05:27:10.569Z,21.33
2019-04-04T05:29:44.891Z,19.80
2019-04-04T05:32:21.709Z,19.83
2019-04-04T05:34:54.542Z,20.70
2019-04-04T05:37:28.273Z,21.07
2019-04-04T05:40:01.926Z,21.33
2019-04-04T05:42:35.714Z,20.77
2019-04-04T05:45:14.015Z,18.60
2019-04-04T05:47:46.258Z,18.37
2019-04-04T05:50:20.273Z,19.27
2019-04-04T05:52:54.397Z,17.77
2019-04-04T05:55:28.606Z,17.87
2019-04-04T05:58:02.453Z,16.83
2019-04-04T06:00:36.279Z,14.90
2019-04-04T06:03:09.948Z,16.87
2019-04-04T06:05:43.972Z,17.63
2019-04-04T06:08:17.697Z,17.70
2019-04-04T06:10:51.454Z,15.70
2019-04-04T06:13:27.006Z,16.03
2019-04-04T06:16:02.018Z,16.93
2019-04-04T06:18:36.536Z,16.47
2019-04-04T06:21:10.228Z,14.77
2019-04-04T06:23:43.842Z,13.10
2019-04-04T06:26:17.420Z,15.30
2019-04-04T06:28:51.575Z,16.37
2019-04-04T06:31:26.947Z,15.93
2019-04-04T06:34:00.511Z,16.50
2019-04-04T06:36:36.553Z,14.43
2019-04-04T15:52:45.953Z,28.30
2019-04-04T15:55:19.634Z,28.60
2019-04-04T15:57:53.262Z,28.40
2019-04-04T16:00:27.581Z,28.20
2019-04-04T16:03:01.484Z,26.53
2019-04-04T16:05:35.347Z,27.37
2019-04-04T16:08:08.960Z,28.07
2019-04-04T16:10:42.814Z,30.37
2019-04-04T16:13:16.822Z,27.80
2019-04-04T16:15:51.101Z,28.90
2019-04-04T16:18:26.795Z,27.17
2019-04-04T16:21:00.805Z,26.73
2019-04-04T16:23:34.992Z,28.30
2019-04-04T16:26:08.628Z,28.20
2019-04-04T16:28:42.537Z,28.13
2019-04-04T16:31:24.957Z,30.77
2019-04-04T16:34:15.448Z,29.07
2019-04-04T16:36:49.406Z,30.20
2019-04-04T16:39:23.319Z,30.67
2019-04-04T16:42:02.385Z,30.70
2019-04-04T16:44:32.623Z,28.07
2019-04-04T16:47:06.372Z,29.03
2019-04-04T16:49:40.328Z,28.20
2019-04-04T16:52:21.664Z,27.20
2019-04-04T16:54:58.002Z,29.93
2019-04-04T16:57:32.017Z,27.53
2019-04-04T17:00:06.680Z,29.00
2019-04-04T17:02:40.291Z,29.67
2019-04-04T17:05:14.511Z,29.70
2019-04-04T17:07:48.457Z,28.83
2019-04-04T17:10:22.104Z,28.00
2019-04-04T17:12:56.979Z,30.77
2019-04-04T17:15:30.681Z,28.13
2019-04-04T17:18:04.997Z,33.57
2019-04-04T17:20:40.783Z,33.77
2019-04-04T17:23:17.539Z,33.40
2019-04-04T17:25:51.537Z,32.43
2019-04-04T17:28:26.154Z,31.13
2019-04-04T17:31:00.093Z,30.17
2019-04-04T17:33:34.546Z,31.87
2019-04-04T17:36:09.674Z,33.00
2019-04-04T17:38:44.062Z,31.97
2019-04-04T17:41:18.095Z,31.80
2019-04-04T17:43:52.079Z,30.80
2019-04-04T17:46:29.783Z,32.43
2019-04-04T17:49:04.341Z,33.20
2019-04-04T17:51:38.888Z,33.60
2019-04-04T17:54:12.965Z,31.33
2019-04-04T17:56:56.168Z,33.00
2019-04-04T17:59:30.530Z,32.70
2019-04-04T18:02:05.113Z,34.07
2019-04-04T18:04:48.301Z,31.33
2019-04-04T18:07:15.345Z,30.67
2019-04-04T18:09:51.793Z,31.40
2019-04-04T18:12:25.776Z,31.87
2019-04-04T18:15:03.274Z,33.87
2019-04-04T18:17:38.228Z,32.50
2019-04-04T18:20:13.752Z,33.73
2019-04-04T18:22:48.082Z,33.37
2019-04-04T18:25:22.747Z,33.90
2019-04-04T18:27:58.235Z,33.30
2019-04-04T18:30:31.974Z,33.43
2019-04-04T18:33:07.114Z,33.40
2019-04-04T18:35:41.739Z,31.63
2019-04-04T18:38:18.352Z,31.23
2019-04-04T18:40:52.288Z,33.20
2019-04-04T18:43:26.370Z,35.30
2019-04-04T18:46:00.414Z,32.87
2019-04-04T18:48:35.214Z,32.10
2019-04-04T18:51:08.974Z,34.53
2019-04-04T18:53:45.856Z,32.53
2019-04-04T18:56:19.940Z,34.53
2019-04-04T18:58:55.750Z,32.70
2019-04-04T19:01:31.204Z,35.87
2019-04-04T19:04:05.674Z,33.27
2019-04-04T19:06:39.768Z,33.30
2019-04-04T19:09:15.578Z,33.07
2019-04-04T19:11:49.320Z,31.53
2019-04-04T19:14:23.393Z,33.30
2019-04-04T19:16:58.109Z,34.80
2019-04-04T19:19:36.734Z,32.47
2019-04-04T19:22:10.732Z,33.80
2019-04-04T19:24:44.530Z,31.57
2019-04-04T19:27:18.832Z,32.63
2019-04-04T19:29:53.163Z,33.77
2019-04-04T19:32:27.051Z,33.27
2019-04-04T19:35:03.602Z,32.23
2019-04-04T19:37:37.754Z,33.10
2019-04-04T19:40:15.899Z,31.93
2019-04-04T19:42:51.724Z,32.23
2019-04-04T19:45:27.258Z,31.53
2019-04-04T19:48:01.024Z,33.03
2019-04-04T19:50:38.950Z,30.50
2019-04-04T19:53:11.805Z,32.03
2019-04-04T19:55:46.198Z,33.27
2019-04-04T19:58:19.991Z,29.70
2019-04-04T20:00:56.365Z,30.83
2019-04-04T20:03:30.362Z,30.80
2019-04-04T20:06:03.964Z,29.47
2019-04-04T20:08:37.990Z,31.23
2019-04-04T20:11:11.746Z,30.57
2019-04-04T20:13:45.690Z,30.63
2019-04-04T20:16:19.313Z,30.67
2019-04-04T20:18:55.611Z,30.43
2019-04-04T20:21:31.416Z,30.57
2019-04-04T20:24:05.537Z,29.40
2019-04-04T20:26:40.005Z,30.10
2019-04-04T20:29:13.954Z,28.40
2019-04-04T20:31:47.542Z,30.23
2019-04-04T20:34:21.464Z,29.20
2019-04-04T20:36:55.485Z,31.30
2019-04-04T20:39:29.481Z,28.70
2019-04-04T20:42:03.423Z,30.87
2019-04-04T20:44:39.880Z,30.73
2019-04-04T20:47:14.090Z,30.10
2019-04-04T20:49:47.861Z,30.37
2019-04-04T20:52:22.301Z,32.20
2019-04-04T20:54:55.932Z,32.33
2019-04-04T20:57:29.822Z,31.60
2019-04-04T21:00:03.830Z,31.77
2019-04-04T21:02:37.742Z,31.50
2019-04-04T21:05:12.313Z,31.90
2019-04-04T21:07:45.890Z,32.33
2019-04-04T21:10:20.274Z,31.93
2019-04-04T21:12:53.822Z,33.33
2019-04-04T21:15:27.739Z,36.40
2019-04-04T21:18:01.293Z,34.47
2019-04-04T21:20:34.888Z,36.83
2019-04-04T21:23:08.438Z,33.50
2019-04-04T21:25:42.019Z,34.30
2019-04-04T21:28:15.609Z,34.00
2019-04-04T21:30:49.283Z,35.23
2019-04-04T21:33:22.853Z,36.10
